Time;durP1;ratioP1;P1;durP2;ratioP2;P2;SDS_P1;SDS_P2;PMS_P1;PMS_P2;Temp;Humidity;BMP_temperature;BMP_pressure;BME280_temperature;BME280_humidity;BME280_pressure;Samples;Min_cycle;Max_cycle;Signal;HPM_P1;HPM_P2
2022/12/01 00:00:06;;;;;;;;;;;;;;;9.59;61.98;99226.47;5036093;28;20430;-72
2022/12/01 00:02:31;;;;;;;;;;;;;;;9.59;62.07;99228.25;5054064;28;19923;-72
2022/12/01 00:04:56;;;;;;;;;;;;;;;9.58;62.03;99237.00;5053989;28;19990;-72
2022/12/01 00:07:22;;;;;;;;;;;;;;;9.59;62.00;99238.69;5035661;28;19924;-72
2022/12/01 00:12:31;;;;;;;;;;;;;;;9.58;62.25;99229.16;5053652;28;20012;-72
2022/12/01 00:14:59;;;;;;;;;;;;;;;9.58;62.07;99223.97;5069897;28;19948;-72
2022/12/01 00:17:26;;;;;;;;;;;;;;;9.58;61.98;99227.41;5053948;28;19939;-72
2022/12/01 00:19:51;;;;;;;;;;;;;;;9.58;62.02;99226.56;5068254;28;19920;-73
2022/12/01 00:22:16;;;;;;;;;;;;;;;9.58;62.20;99222.22;5035837;28;19927;-73
2022/12/01 00:24:42;;;;;;;;;;;;;;;9.58;62.15;99217.00;5066286;28;20303;-72
2022/12/01 00:27:07;;;;;;;;;;;;;;;9.58;62.25;99214.38;5035777;28;20273;-72
2022/12/01 00:29:32;;;;;;;;;;;;;;;9.58;62.23;99210.94;5019430;28;19921;-72
2022/12/01 00:31:58;;;;;;;;;;;;;;;9.57;62.23;99202.28;5035665;28;20011;-72
2022/12/01 00:34:23;;;;;;;;;;;;;;;9.57;62.16;99207.50;5035741;28;19942;-73
2022/12/01 00:36:49;;;;;;;;;;;;;;;9.58;62.18;99203.09;5035587;28;19917;-73
2022/12/01 00:39:14;;;;;;;;;;;;;;;9.58;62.12;99205.72;5051282;28;19929;-73
2022/12/01 00:41:40;;;;;;;;;;;;;;;9.58;62.23;99203.09;5018558;28;20285;-72
2022/12/01 00:44:05;;;;;;;;;;;;;;;9.57;62.26;99193.63;5053095;28;19917;-72
2022/12/01 00:46:30;;;;;;;;;;;;;;;9.56;62.39;99192.78;5041958;28;20320;-73
2022/12/01 00:48:55;;;;;;;;;;;;;;;9.57;62.21;99191.03;5053285;28;20312;-73
2022/12/01 00:51:21;;;;;;;;;;;;;;;9.56;62.12;99194.56;5051700;28;19948;-73
2022/12/01 00:53:46;;;;;;;;;;;;;;;9.55;62.30;99191.13;5051487;28;19917;-73
2022/12/01 00:56:11;;;;;;;;;;;;;;;9.57;62.12;99185.81;5034584;28;19917;-73
2022/12/01 00:58:37;;;;;;;;;;;;;;;9.56;62.24;99191.97;5052550;28;19923;-72
2022/12/01 01:01:02;;;;;;;;;;;;;;;9.56;62.24;99181.53;5052195;28;19935;-73
2022/12/01 01:03:28;;;;;;;;;;;;;;;9.54;62.12;99179.03;5031731;28;19970;-73
2022/12/01 01:05:53;;;;;;;;;;;;;;;9.55;62.19;99185.06;5018232;28;19917;-71
2022/12/01 01:08:18;;;;;;;;;;;;;;;9.56;62.20;99181.53;5052745;28;19916;-73
2022/12/01 01:10:44;;;;;;;;;;;;;;;9.55;62.18;99178.09;5017868;28;19917;-72
2022/12/01 01:13:10;;;;;;;;;;;;;;;9.55;62.14;99177.25;5019050;28;20319;-71
2022/12/01 01:15:35;;;;;;;;;;;;;;;9.54;62.05;99179.03;5018038;28;20045;-72
2022/12/01 01:18:01;;;;;;;;;;;;;;;9.53;61.93;99181.72;5034739;28;19938;-73
2022/12/01 01:20:26;;;;;;;;;;;;;;;9.51;62.07;99173.19;5052332;28;20288;-73
2022/12/01 01:22:51;;;;;;;;;;;;;;;9.50;62.00;99171.50;5035363;28;19921;-72
2022/12/01 01:25:17;;;;;;;;;;;;;;;9.49;61.89;99175.03;5034850;28;19920;-72
2022/12/01 01:27:42;;;;;;;;;;;;;;;9.46;61.96;99176.09;5027538;28;20264;-72
2022/12/01 01:30:08;;;;;;;;;;;;;;;9.46;61.72;99176.09;5051357;28;19963;-72
2022/12/01 01:32:33;;;;;;;;;;;;;;;9.45;61.58;99174.41;5052654;28;19927;-72
2022/12/01 01:34:58;;;;;;;;;;;;;;;9.43;61.68;99163.25;5052297;28;19960;-72
2022/12/01 01:37:24;;;;;;;;;;;;;;;9.43;61.82;99165.84;5051034;28;19917;-72
2022/12/01 01:39:49;;;;;;;;;;;;;;;9.43;61.61;99165.84;5051890;28;19921;-72
2022/12/01 01:42:16;;;;;;;;;;;;;;;9.41;61.40;99163.34;5052201;28;20363;-72
2022/12/01 01:44:51;;;;;;;;;;;;;;;9.41;61.60;99163.34;5034846;28;20015;-71
2022/12/01 01:47:17;;;;;;;;;;;;;;;9.40;61.67;99160.84;5052588;28;19924;-71
2022/12/01 01:49:42;;;;;;;;;;;;;;;9.40;61.53;99155.63;5035842;28;19917;-72
2022/12/01 01:52:07;;;;;;;;;;;;;;;9.40;61.55;99160.84;5056537;28;19917;-71
2022/12/01 01:54:36;;;;;;;;;;;;;;;9.39;61.62;99159.16;5021125;28;19924;-71
2022/12/01 01:57:02;;;;;;;;;;;;;;;9.39;61.57;99152.19;5038766;28;19964;-70
2022/12/01 01:59:28;;;;;;;;;;;;;;;9.39;61.54;99154.81;5038581;28;20355;-72
2022/12/01 02:02:05;;;;;;;;;;;;;;;9.39;61.60;99147.00;5021470;28;20071;-71
2022/12/01 02:04:31;;;;;;;;;;;;;;;9.40;61.40;99146.03;5021977;28;20500;-71
2022/12/01 02:06:56;;;;;;;;;;;;;;;9.40;61.49;99140.81;5021643;28;20327;-72
2022/12/01 02:09:22;;;;;;;;;;;;;;;9.41;61.50;99139.06;5038222;28;19917;-71
2022/12/01 02:12:02;;;;;;;;;;;;;;;9.40;61.55;99137.41;5038341;28;19924;-72
2022/12/01 02:14:36;;;;;;;;;;;;;;;9.42;61.42;99132.91;5055968;28;19916;-72
2022/12/01 02:17:20;;;;;;;;;;;;;;;9.41;61.43;99129.47;5056103;28;19923;-72
2022/12/01 02:20:04;;;;;;;;;;;;;;;9.41;61.65;99131.25;5055464;28;19936;-72
2022/12/01 02:22:44;;;;;;;;;;;;;;;9.43;61.65;99131.16;5056702;28;19917;-73
2022/12/01 02:25:28;;;;;;;;;;;;;;;9.41;61.70;99132.09;5038109;28;19927;-72
2022/12/01 02:27:58;;;;;;;;;;;;;;;9.41;61.70;99119.06;5055940;28;19924;-72
2022/12/01 02:30:43;;;;;;;;;;;;;;;9.41;61.52;99124.25;5037907;28;19920;-73
2022/12/01 02:33:08;;;;;;;;;;;;;;;9.42;61.64;99125.09;5055908;28;19917;-73
2022/12/01 02:35:34;;;;;;;;;;;;;;;9.42;61.73;99119.88;5055796;28;20295;-73
2022/12/01 02:38:11;;;;;;;;;;;;;;;9.41;61.61;99128.66;5055756;28;20013;-73
2022/12/01 02:40:42;;;;;;;;;;;;;;;9.42;61.59;99117.28;5037803;28;20469;-72
2022/12/01 02:43:16;;;;;;;;;;;;;;;9.41;61.63;99134.69;5037851;28;19924;-72
2022/12/01 02:46:00;;;;;;;;;;;;;;;9.43;61.48;99123.34;5037664;28;20326;-73
2022/12/01 02:48:30;;;;;;;;;;;;;;;9.42;61.49;99119.88;5037523;28;20414;-72
2022/12/01 02:50:57;;;;;;;;;;;;;;;9.42;61.38;99125.09;5037345;28;19931;-73
2022/12/01 02:53:22;;;;;;;;;;;;;;;9.41;61.43;99124.25;5037525;28;19917;-72
2022/12/01 02:55:51;;;;;;;;;;;;;;;9.42;61.29;99135.50;5070811;28;19921;-72
2022/12/01 02:58:16;;;;;;;;;;;;;;;9.40;61.23;99133.00;5070569;28;19921;-72
2022/12/01 03:00:44;;;;;;;;;;;;;;;9.40;61.13;99129.56;5070128;28;19955;-72
2022/12/01 03:03:19;;;;;;;;;;;;;;;9.40;61.12;99132.19;5036831;28;19916;-72
2022/12/01 03:05:48;;;;;;;;;;;;;;;9.39;61.00;99133.97;5055019;28;20078;-72
2022/12/01 03:08:18;;;;;;;;;;;;;;;9.38;60.85;99129.66;5070723;28;19921;-71
2022/12/01 03:10:54;;;;;;;;;;;;;;;9.37;60.75;99135.81;5037035;28;20471;-71
2022/12/01 03:13:25;;;;;;;;;;;;;;;9.35;60.84;99131.66;5070770;28;20394;-71
2022/12/01 03:16:02;;;;;;;;;;;;;;;9.34;60.84;99129.97;5037083;28;19923;-71
2022/12/01 03:18:37;;;;;;;;;;;;;;;9.31;60.84;99128.38;5053633;28;19923;-71
2022/12/01 03:21:05;;;;;;;;;;;;;;;9.30;60.78;99121.53;5036887;28;20393;-71
2022/12/01 03:23:32;;;;;;;;;;;;;;;9.31;60.70;99120.56;5055007;28;19917;-72
2022/12/01 03:25:58;;;;;;;;;;;;;;;9.28;60.90;99118.16;5070727;28;19917;-71
2022/12/01 03:28:27;;;;;;;;;;;;;;;9.27;60.76;99116.50;5070139;28;20011;-71
2022/12/01 03:30:54;;;;;;;;;;;;;;;9.27;60.80;99113.91;5069877;28;20323;-71
2022/12/01 03:33:20;;;;;;;;;;;;;;;9.26;60.67;99117.44;5053235;28;19967;-71
2022/12/01 03:35:56;;;;;;;;;;;;;;;9.25;60.77;99123.59;5069968;28;19920;-71
2022/12/01 03:38:25;;;;;;;;;;;;;;;9.22;60.79;99122.03;5053490;28;20372;-71
2022/12/01 03:40:52;;;;;;;;;;;;;;;9.23;60.70;99126.31;5052947;28;19917;-71
2022/12/01 03:43:18;;;;;;;;;;;;;;;9.23;60.88;99123.69;5069818;28;20410;-71
2022/12/01 03:45:54;;;;;;;;;;;;;;;9.21;60.68;99120.34;5069985;28;19925;-72
2022/12/01 03:48:20;;;;;;;;;;;;;;;9.20;60.59;99121.28;5069901;28;19926;-72
2022/12/01 03:50:57;;;;;;;;;;;;;;;9.20;60.62;99121.28;5069696;28;19917;-71
2022/12/01 03:53:24;;;;;;;;;;;;;;;9.20;60.69;99123.91;5070099;28;19921;-72
2022/12/01 03:55:50;;;;;;;;;;;;;;;9.20;60.55;99128.25;5052983;28;20372;-71
2022/12/01 03:58:17;;;;;;;;;;;;;;;9.19;60.66;99129.22;5069455;28;19925;-72
2022/12/01 04:00:42;;;;;;;;;;;;;;;9.19;60.62;99126.59;5069484;28;19935;-72
2022/12/01 04:03:12;;;;;;;;;;;;;;;9.19;60.52;99124.00;5053123;28;20015;-71
2022/12/01 04:05:38;;;;;;;;;;;;;;;9.18;60.52;99124.91;5063052;28;19917;-72
2022/12/01 04:08:03;;;;;;;;;;;;;;;9.18;60.65;99130.13;5036485;28;20429;-72
2022/12/01 04:10:28;;;;;;;;;;;;;;;9.17;60.63;99129.31;5035867;28;20343;-72
2022/12/01 04:12:58;;;;;;;;;;;;;;;9.16;60.63;99130.22;5036104;28;19917;-72
2022/12/01 04:15:23;;;;;;;;;;;;;;;9.15;60.58;99130.31;5036683;28;20418;-72
2022/12/01 04:17:48;;;;;;;;;;;;;;;9.13;60.47;99138.22;5036186;28;20000;-72
2022/12/01 04:20:14;;;;;;;;;;;;;;;9.14;60.43;99132.09;5018631;28;20027;-72
2022/12/01 04:22:39;;;;;;;;;;;;;;;9.12;60.37;99133.13;5052205;28;19990;-72
2022/12/01 04:25:05;;;;;;;;;;;;;;;9.11;60.39;99142.72;5035364;28;19920;-71
2022/12/01 04:27:30;;;;;;;;;;;;;;;9.10;60.32;99143.63;5053731;28;19917;-72
2022/12/01 04:29:56;;;;;;;;;;;;;;;9.10;60.26;99153.22;5035327;28;20004;-72
2022/12/01 04:32:21;;;;;;;;;;;;;;;9.08;60.07;99155.94;5053474;28;19986;-72
2022/12/01 04:34:46;;;;;;;;;;;;;;;9.06;60.00;99157.78;5053308;28;19916;-79
2022/12/01 04:37:12;;;;;;;;;;;;;;;9.04;59.95;99162.25;5053380;28;20379;-74
2022/12/01 04:39:37;;;;;;;;;;;;;;;9.40;70.78;99161.66;5035714;28;19960;-74
2022/12/01 04:42:02;;;;;;;;;;;;;;;9.43;67.77;99165.03;5053145;28;20331;-75
2022/12/01 04:44:28;;;;;;;;;;;;;;;9.40;66.43;99161.66;5051676;28;19939;-75
2022/12/01 04:46:53;;;;;;;;;;;;;;;9.38;65.67;99160.94;5051938;28;19975;-75
2022/12/01 04:49:19;;;;;;;;;;;;;;;9.53;69.46;99160.88;5053922;28;20007;-76
2022/12/01 04:51:44;;;;;;;;;;;;;;;9.52;68.28;99162.66;5068281;28;19974;-86
2022/12/01 04:54:09;;;;;;;;;;;;;;;9.52;67.27;99165.25;5051765;28;19983;-76
2022/12/01 04:56:35;;;;;;;;;;;;;;;9.49;66.71;99164.59;5052906;28;19923;-76
2022/12/01 04:59:00;;;;;;;;;;;;;;;9.44;66.14;99162.31;5068367;28;20374;-78
2022/12/01 05:01:25;;;;;;;;;;;;;;;9.42;65.76;99166.78;5051492;28;19952;-74
2022/12/01 05:03:51;;;;;;;;;;;;;;;9.52;69.29;99173.09;5052864;28;19925;-78
2022/12/01 05:06:17;;;;;;;;;;;;;;;9.51;67.69;99173.19;5014424;28;20399;-74
2022/12/01 05:08:42;;;;;;;;;;;;;;;9.48;67.10;99179.41;5031934;28;19968;-69
2022/12/01 05:11:10;;;;;;;;;;;;;;;9.45;66.58;99178.78;5031050;28;19971;-69
2022/12/01 05:13:35;;;;;;;;;;;;;;;9.41;66.20;99184.19;5031826;28;19969;-70
2022/12/01 05:16:08;;;;;;;;;;;;;;;9.38;65.83;99184.38;5031627;28;19956;-70
2022/12/01 05:18:33;;;;;;;;;;;;;;;9.35;65.49;99181.97;5031378;28;19921;-70
2022/12/01 05:20:58;;;;;;;;;;;;;;;9.33;65.30;99183.00;5032665;28;20020;-70
2022/12/01 05:23:24;;;;;;;;;;;;;;;9.29;65.13;99179.75;5031344;28;19924;-71
2022/12/01 05:25:50;;;;;;;;;;;;;;;9.26;65.11;99182.56;5030976;28;20004;-71
2022/12/01 05:28:15;;;;;;;;;;;;;;;9.26;64.85;99179.97;5031060;28;20011;-71
2022/12/01 05:30:40;;;;;;;;;;;;;;;9.23;64.71;99174.94;5031374;28;19917;-72
2022/12/01 05:33:06;;;;;;;;;;;;;;;9.22;64.51;99181.09;5032513;28;19967;-71
2022/12/01 05:35:34;;;;;;;;;;;;;;;9.21;64.33;99174.22;5032285;28;19917;-70
2022/12/01 05:37:59;;;;;;;;;;;;;;;9.19;64.33;99173.47;5031948;28;19939;-70
2022/12/01 05:40:25;;;;;;;;;;;;;;;9.18;64.30;99169.19;5031398;28;19917;-69
2022/12/01 05:42:50;;;;;;;;;;;;;;;9.17;64.13;99168.38;5044987;28;19920;-69
2022/12/01 05:45:15;;;;;;;;;;;;;;;9.17;63.99;99155.34;5034640;28;19916;-69
2022/12/01 05:47:40;;;;;;;;;;;;;;;9.15;63.95;99166.78;5052123;28;20003;-69
2022/12/01 05:50:06;;;;;;;;;;;;;;;9.15;63.81;99158.97;5034139;28;19921;-70
2022/12/01 05:52:33;;;;;;;;;;;;;;;9.14;63.58;99152.09;5034934;28;19917;-69
2022/12/01 05:54:58;;;;;;;;;;;;;;;9.15;63.44;99161.56;5052620;28;20395;-70
2022/12/01 05:57:23;;;;;;;;;;;;;;;9.13;63.62;99156.47;5034297;28;19979;-70
2022/12/01 05:59:48;;;;;;;;;;;;;;;9.15;63.46;99161.56;5034747;28;20015;-70
2022/12/01 06:02:14;;;;;;;;;;;;;;;9.15;63.48;99161.56;5034140;28;19923;-70
2022/12/01 06:04:39;;;;;;;;;;;;;;;9.13;63.38;99166.88;5034041;28;19984;-70
2022/12/01 06:07:04;;;;;;;;;;;;;;;9.13;63.03;99159.06;5034029;28;19964;-70
2022/12/01 06:09:30;;;;;;;;;;;;;;;9.14;63.21;99162.50;5034281;28;19924;-81
2022/12/01 06:11:55;;;;;;;;;;;;;;;9.14;63.22;99167.72;5034788;28;19921;-73
2022/12/01 06:14:20;;;;;;;;;;;;;;;9.14;63.00;99168.56;5034029;28;19916;-74
2022/12/01 06:16:46;;;;;;;;;;;;;;;9.14;62.96;99165.09;5052264;28;19967;-74
2022/12/01 06:19:11;;;;;;;;;;;;;;;9.14;63.10;99163.34;5051443;28;20395;-74
2022/12/01 06:21:36;;;;;;;;;;;;;;;9.14;62.87;99165.09;5052228;28;19963;-75
2022/12/01 06:24:02;;;;;;;;;;;;;;;9.21;66.78;99163.78;5067509;28;20071;-74
2022/12/01 06:26:27;;;;;;;;;;;;;;;9.31;66.94;99164.03;5072123;28;19917;-79
2022/12/01 06:28:52;;;;;;;;;;;;;;;9.39;66.15;99166.97;5067990;28;19921;-75
2022/12/01 06:31:18;;;;;;;;;;;;;;;9.36;66.10;99168.03;5067591;28;20368;-72
2022/12/01 06:33:43;;;;;;;;;;;;;;;9.56;71.15;99169.31;5052156;28;19924;-75
2022/12/01 06:36:09;;;;;;;;;;;;;;;9.62;69.06;99164.66;5052626;28;19923;-76
2022/12/01 06:38:35;;;;;;;;;;;;;;;9.57;67.62;99168.41;5055663;28;20354;-75
2022/12/01 06:41:00;;;;;;;;;;;;;;;9.58;68.06;99166.63;5071001;28;19917;-75
2022/12/01 06:43:26;;;;;;;;;;;;;;;9.58;67.24;99156.19;5071195;28;20003;-75
2022/12/01 06:45:51;;;;;;;;;;;;;;;9.58;66.54;99164.00;5071142;28;19917;-76
2022/12/01 06:48:16;;;;;;;;;;;;;;;9.57;65.90;99162.34;5055625;28;19917;-75
2022/12/01 06:50:42;;;;;;;;;;;;;;;9.55;65.62;99161.59;5055427;28;19973;-77
2022/12/01 06:53:07;;;;;;;;;;;;;;;9.54;65.08;99166.00;5071211;28;19967;-76
2022/12/01 06:55:32;;;;;;;;;;;;;;;9.53;65.20;99168.69;5038360;28;20063;-78
2022/12/01 06:57:58;;;;;;;;;;;;;;;9.51;64.87;99157.53;5055643;28;19928;-75
2022/12/01 07:00:24;;;;;;;;;;;;;;;9.52;64.83;99160.06;5037604;28;19921;-75
2022/12/01 07:02:49;;;;;;;;;;;;;;;9.52;64.60;99160.06;5037558;28;20396;-75
2022/12/01 07:05:14;;;;;;;;;;;;;;;9.54;64.24;99157.34;5037427;28;19924;-78
2022/12/01 07:07:40;;;;;;;;;;;;;;;9.54;64.14;99152.97;5021058;28;19920;-79
2022/12/01 07:10:05;;;;;;;;;;;;;;;9.56;64.04;99156.28;5037391;28;19916;-82
2022/12/01 07:12:31;;;;;;;;;;;;;;;10.09;74.59;99161.50;5020079;28;19960;-74
2022/12/01 07:14:56;;;;;;;;;;;;;;;10.20;70.96;99159.94;5037320;28;20007;-77
2022/12/01 07:17:22;;;;;;;;;;;;;;;10.21;68.87;99161.59;5037235;28;20273;-76
2022/12/01 07:19:47;;;;;;;;;;;;;;;10.18;67.67;99161.81;5033899;28;19921;-77
2022/12/01 07:22:13;;;;;;;;;;;;;;;10.12;66.83;99168.25;5031692;28;20007;-79
2022/12/01 07:24:38;;;;;;;;;;;;;;;10.07;66.82;99158.16;5040912;28;19923;-76
2022/12/01 07:27:03;;;;;;;;;;;;;;;10.03;66.17;99163.69;5034965;28;20612;-76
2022/12/01 07:29:28;;;;;;;;;;;;;;;9.98;66.27;99163.16;5052172;28;20287;-78
2022/12/01 07:31:54;;;;;;;;;;;;;;;9.94;66.08;99162.53;5052721;28;20376;-79
2022/12/01 07:34:19;;;;;;;;;;;;;;;9.90;65.67;99164.50;5034077;28;19921;-79
2022/12/01 07:36:44;;;;;;;;;;;;;;;9.89;65.63;99162.00;5051642;28;20354;-77
2022/12/01 07:39:10;;;;;;;;;;;;;;;9.86;65.34;99170.84;5030374;28;19928;-78
2022/12/01 07:41:35;;;;;;;;;;;;;;;9.86;65.23;99170.84;5053713;28;19916;-78
2022/12/01 07:44:00;;;;;;;;;;;;;;;10.51;73.12;99176.97;5052794;28;19917;-76
2022/12/01 07:46:26;;;;;;;;;;;;;;;10.63;71.00;99172.69;5051398;28;19916;-79
2022/12/01 07:48:52;;;;;;;;;;;;;;;10.65;69.04;99168.19;5034368;28;20392;-77
2022/12/01 07:51:17;;;;;;;;;;;;;;;10.60;67.55;99168.50;5035133;28;19921;-71
2022/12/01 07:53:46;;;;;;;;;;;;;;;10.50;66.88;99177.94;5052593;28;19947;-75
2022/12/01 07:56:11;;;;;;;;;;;;;;;10.52;67.49;99176.03;5035184;28;19920;-71
2022/12/01 07:58:36;;;;;;;;;;;;;;;10.48;67.17;99179.78;5034356;28;19927;-74
2022/12/01 08:01:20;;;;;;;;;;;;;;;10.43;66.47;99180.09;5034895;28;19928;-72
2022/12/01 08:03:49;;;;;;;;;;;;;;;10.37;65.99;99179.69;5034688;28;19916;-72
2022/12/01 08:06:15;;;;;;;;;;;;;;;10.40;67.96;99171.66;5052179;28;19917;-73
2022/12/01 08:08:40;;;;;;;;;;;;;;;10.43;67.31;99176.66;5034379;28;19921;-74
2022/12/01 08:11:06;;;;;;;;;;;;;;;10.38;66.72;99173.53;5052370;28;19917;-73
2022/12/01 08:13:32;;;;;;;;;;;;;;;10.29;66.30;99178.41;5034726;28;19917;-73
2022/12/01 08:15:57;;;;;;;;;;;;;;;10.25;66.24;99182.16;5034205;28;19916;-73
2022/12/01 08:18:22;;;;;;;;;;;;;;;10.20;66.22;99178.19;5034509;28;19967;-72
2022/12/01 08:20:48;;;;;;;;;;;;;;;10.13;65.84;99183.81;5017009;28;20347;-72
2022/12/01 08:23:13;;;;;;;;;;;;;;;10.10;65.90;99180.59;5034540;28;20425;-73
2022/12/01 08:25:39;;;;;;;;;;;;;;;10.06;65.96;99179.13;5034141;28;19920;-73
2022/12/01 08:28:04;;;;;;;;;;;;;;;10.02;65.89;99175.88;5051066;28;20277;-71
2022/12/01 08:30:29;;;;;;;;;;;;;;;10.00;65.74;99179.53;5050934;28;19931;-72
2022/12/01 08:32:55;;;;;;;;;;;;;;;9.98;65.78;99174.44;5049949;28;19925;-75
2022/12/01 08:35:20;;;;;;;;;;;;;;;9.98;65.68;99174.44;5061062;28;19917;-74
2022/12/01 08:37:45;;;;;;;;;;;;;;;9.96;65.36;99171.94;5039318;28;20338;-70
2022/12/01 08:40:11;;;;;;;;;;;;;;;9.96;65.40;99166.72;5051816;28;19917;-70
2022/12/01 08:42:36;;;;;;;;;;;;;;;9.94;65.28;99165.13;5052046;28;20022;-70
2022/12/01 08:45:02;;;;;;;;;;;;;;;9.93;66.03;99161.69;5034742;28;19921;-74
2022/12/01 08:47:27;;;;;;;;;;;;;;;9.98;66.54;99163.16;5019555;28;19917;-73
2022/12/01 08:49:53;;;;;;;;;;;;;;;9.98;65.98;99161.41;5052915;28;19928;-72
2022/12/01 08:52:19;;;;;;;;;;;;;;;9.98;65.79;99155.31;5034964;28;19917;-72
2022/12/01 08:54:44;;;;;;;;;;;;;;;10.01;67.11;99155.97;5018981;28;19971;-70
2022/12/01 08:57:09;;;;;;;;;;;;;;;10.02;66.64;99147.19;5034972;28;19971;-73
2022/12/01 08:59:35;;;;;;;;;;;;;;;10.01;66.22;99144.69;5034254;28;19928;-71
2022/12/01 09:02:00;;;;;;;;;;;;;;;10.01;65.86;99149.91;5035082;28;19944;-71
2022/12/01 09:04:25;;;;;;;;;;;;;;;9.99;65.87;99149.19;5052790;28;19968;-72
2022/12/01 09:06:51;;;;;;;;;;;;;;;9.95;65.67;99152.00;5052855;28;19917;-72
2022/12/01 09:09:17;;;;;;;;;;;;;;;9.94;65.62;99146.88;5034970;28;19917;-71
2022/12/01 09:11:43;;;;;;;;;;;;;;;9.91;65.43;99136.66;5018300;28;20038;-72
2022/12/01 09:14:09;;;;;;;;;;;;;;;9.89;65.26;99131.53;5034861;28;19929;-71
2022/12/01 09:16:34;;;;;;;;;;;;;;;9.88;65.08;99134.25;5052938;28;19974;-71
2022/12/01 09:18:59;;;;;;;;;;;;;;;9.85;64.99;99135.31;5034953;28;20315;-71
2022/12/01 09:21:25;;;;;;;;;;;;;;;9.82;65.03;99127.69;5052581;28;19917;-72
2022/12/01 09:23:51;;;;;;;;;;;;;;;9.84;65.02;99130.19;5018795;28;20366;-70
2022/12/01 09:26:17;;;;;;;;;;;;;;;9.83;64.88;99126.72;5052621;28;20395;-71
2022/12/01 09:28:46;;;;;;;;;;;;;;;9.84;64.79;99128.41;5034832;28;19921;-72
2022/12/01 09:31:12;;;;;;;;;;;;;;;9.83;64.68;99120.69;5018811;28;20347;-71
2022/12/01 09:33:37;;;;;;;;;;;;;;;9.82;64.39;99132.91;5034833;28;19924;-70
2022/12/01 09:36:03;;;;;;;;;;;;;;;9.83;64.52;99121.50;5018267;28;19927;-71
2022/12/01 09:38:28;;;;;;;;;;;;;;;9.83;64.53;99118.09;5034835;28;19916;-71
2022/12/01 09:40:54;;;;;;;;;;;;;;;9.82;64.29;99119.88;5018270;28;19924;-72
2022/12/01 09:43:23;;;;;;;;;;;;;;;9.81;64.44;99115.56;5034625;28;20336;-72
2022/12/01 09:45:53;;;;;;;;;;;;;;;9.81;64.23;99112.16;4998171;28;19917;-73
2022/12/01 09:48:30;;;;;;;;;;;;;;;9.82;64.12;99108.56;5031670;28;19996;-71
2022/12/01 09:50:56;;;;;;;;;;;;;;;9.82;64.01;99112.03;5031202;28;19917;-72
2022/12/01 09:53:22;;;;;;;;;;;;;;;9.81;64.11;99105.16;5014926;28;19932;-71
2022/12/01 09:55:48;;;;;;;;;;;;;;;9.81;64.11;99099.94;5031377;28;19928;-71
2022/12/01 09:58:17;;;;;;;;;;;;;;;9.83;63.97;99099.84;5031329;28;19925;-70
2022/12/01 10:00:42;;;;;;;;;;;;;;;9.83;63.95;99100.66;5042531;28;20012;-70
2022/12/01 10:03:08;;;;;;;;;;;;;;;9.84;63.77;99102.34;5052434;28;20367;-71
2022/12/01 10:05:43;;;;;;;;;;;;;;;9.85;63.62;99095.34;5052020;28;19916;-71
2022/12/01 10:08:11;;;;;;;;;;;;;;;9.86;63.47;99092.63;5018101;28;20307;-71
2022/12/01 10:10:37;;;;;;;;;;;;;;;9.86;63.44;99091.81;5018617;28;19925;-70
2022/12/01 10:13:07;;;;;;;;;;;;;;;9.85;63.42;99096.19;5038373;28;20011;-70
2022/12/01 10:15:42;;;;;;;;;;;;;;;9.84;63.57;99099.72;5021667;28;19960;-71
2022/12/01 10:18:24;;;;;;;;;;;;;;;9.85;63.56;99103.16;5038226;28;19917;-71
2022/12/01 10:21:08;;;;;;;;;;;;;;;9.84;63.39;99102.34;5021724;28;19920;-71
2022/12/01 10:24:00;;;;;;;;;;;;;;;9.84;63.17;99093.69;5038377;28;20011;-71
2022/12/01 10:26:34;;;;;;;;;;;;;;;9.83;63.24;99097.22;5025113;28;19917;-71
2022/12/01 10:29:18;;;;;;;;;;;;;;;9.81;63.18;99088.69;5055871;28;19917;-70
2022/12/01 10:31:51;;;;;;;;;;;;;;;9.82;63.02;99087.72;5055953;28;20011;-70
2022/12/01 10:34:31;;;;;;;;;;;;;;;9.78;63.06;99082.72;5021612;28;19917;-73
2022/12/01 10:36:56;;;;;;;;;;;;;;;9.78;63.14;99079.28;5038119;28;19916;-71
2022/12/01 10:39:28;;;;;;;;;;;;;;;9.78;62.96;99085.31;5038228;28;19967;-71
2022/12/01 10:41:56;;;;;;;;;;;;;;;9.76;62.92;99082.00;5037526;28;19924;-69
2022/12/01 10:44:21;;;;;;;;;;;;;;;9.77;62.89;99080.22;5070928;28;19986;-71
2022/12/01 10:46:51;;;;;;;;;;;;;;;9.74;62.98;99086.47;5055704;28;20380;-71
2022/12/01 10:49:17;;;;;;;;;;;;;;;9.75;63.09;99084.69;5071194;28;19972;-71
2022/12/01 10:51:55;;;;;;;;;;;;;;;9.74;63.07;99088.22;5071016;28;19962;-70
2022/12/01 10:54:39;;;;;;;;;;;;;;;9.75;62.76;99080.31;5071488;28;20367;-71
2022/12/01 10:57:05;;;;;;;;;;;;;;;9.74;62.70;99093.44;5071092;28;19966;-70
2022/12/01 10:59:35;;;;;;;;;;;;;;;9.75;62.75;99090.75;5053985;28;19926;-71
2022/12/01 11:02:00;;;;;;;;;;;;;;;9.74;62.64;99078.66;5033778;28;20383;-70
2022/12/01 11:04:29;;;;;;;;;;;;;;;9.75;62.54;99084.69;5034013;28;19967;-71
2022/12/01 11:06:54;;;;;;;;;;;;;;;9.75;62.64;99085.53;5033836;28;20358;-70
2022/12/01 11:09:20;;;;;;;;;;;;;;;9.74;62.73;99078.66;5034006;28;19918;-70
2022/12/01 11:11:45;;;;;;;;;;;;;;;9.75;62.19;99072.50;5035101;28;20296;-72
2022/12/01 11:14:17;;;;;;;;;;;;;;;9.75;62.42;99076.88;5034074;28;19924;-71
2022/12/01 11:16:44;;;;;;;;;;;;;;;9.74;62.34;99083.88;5017462;28;19917;-75
2022/12/01 11:19:16;;;;;;;;;;;;;;;9.75;62.34;99076.88;5033498;28;19921;-71
2022/12/01 11:21:51;;;;;;;;;;;;;;;9.73;62.44;99082.19;5016375;28;19967;-71
2022/12/01 11:24:37;;;;;;;;;;;;;;;9.74;62.28;99072.59;5033634;28;20395;-71
2022/12/01 11:27:02;;;;;;;;;;;;;;;9.73;62.39;99087.41;5034656;28;19917;-71
2022/12/01 11:29:35;;;;;;;;;;;;;;;9.74;62.21;99083.88;5034870;28;20613;-71
2022/12/01 11:32:00;;;;;;;;;;;;;;;9.76;62.23;99091.59;5033510;28;19917;-72
2022/12/01 11:34:36;;;;;;;;;;;;;;;9.76;62.13;99086.38;5016926;28;20027;-71
2022/12/01 11:37:03;;;;;;;;;;;;;;;9.77;62.21;99090.63;5017354;28;19940;-70
2022/12/01 11:39:32;;;;;;;;;;;;;;;9.76;62.23;99079.38;5033316;28;20012;-70
2022/12/01 11:42:18;;;;;;;;;;;;;;;9.76;62.19;99074.16;5033498;28;19917;-72
2022/12/01 11:45:04;;;;;;;;;;;;;;;9.76;62.19;99068.97;4973704;28;20309;-71
2022/12/01 11:47:29;;;;;;;;;;;;;;;9.76;61.95;99066.34;4973929;28;19925;-71
2022/12/01 11:49:58;;;;;;;;;;;;;;;9.76;62.02;99062.91;4973458;28;19918;-72
2022/12/01 11:52:26;;;;;;;;;;;;;;;9.76;62.09;99057.69;4973662;28;19980;-71
2022/12/01 11:54:54;;;;;;;;;;;;;;;9.75;61.96;99051.63;4973373;28;19941;-71
2022/12/01 11:57:20;;;;;;;;;;;;;;;9.75;62.03;99054.25;4973332;28;20020;-72
2022/12/01 11:59:45;;;;;;;;;;;;;;;9.77;61.85;99057.59;4957376;28;20057;-72
2022/12/01 12:02:26;;;;;;;;;;;;;;;9.77;61.86;99054.13;4973734;28;20413;-71
2022/12/01 12:05:01;;;;;;;;;;;;;;;9.77;61.86;99044.56;4957002;28;19993;-71
2022/12/01 12:07:35;;;;;;;;;;;;;;;9.76;61.95;99045.50;4957537;28;19949;-71
2022/12/01 12:10:03;;;;;;;;;;;;;;;9.76;61.75;99047.28;4956868;28;20405;-72
2022/12/01 12:12:37;;;;;;;;;;;;;;;9.75;61.80;99046.41;4973257;28;19941;-72
2022/12/01 12:15:15;;;;;;;;;;;;;;;9.76;61.68;99049.88;4972737;28;19922;-72
2022/12/01 12:17:40;;;;;;;;;;;;;;;9.73;62.25;99052.69;4972935;28;19918;-72
2022/12/01 12:20:19;;;;;;;;;;;;;;;9.72;61.83;99057.06;4972716;28;19981;-72
2022/12/01 12:22:47;;;;;;;;;;;;;;;9.71;61.80;99060.63;5012576;28;19917;-71
2022/12/01 12:25:19;;;;;;;;;;;;;;;9.70;61.59;99056.34;5053790;28;19923;-71
2022/12/01 12:27:47;;;;;;;;;;;;;;;9.70;61.53;99058.13;5019086;28;19921;-71
2022/12/01 12:30:16;;;;;;;;;;;;;;;9.68;61.70;99060.81;5053411;28;19975;-70
2022/12/01 12:32:54;;;;;;;;;;;;;;;9.67;61.61;99059.16;5035718;28;19959;-71
2022/12/01 12:35:19;;;;;;;;;;;;;;;9.66;61.59;99059.25;5053467;28;19917;-73
2022/12/01 12:37:52;;;;;;;;;;;;;;;9.67;61.76;99061.75;5035758;28;19916;-71
2022/12/01 12:40:24;;;;;;;;;;;;;;;9.66;61.54;99056.63;5035786;28;19917;-71
2022/12/01 12:42:49;;;;;;;;;;;;;;;9.66;61.52;99051.44;5035638;28;20024;-70
2022/12/01 12:45:33;;;;;;;;;;;;;;;9.66;61.57;99059.25;5053147;28;19923;-72
2022/12/01 12:48:20;;;;;;;;;;;;;;;9.66;61.37;99059.25;5053383;28;19917;-71
2022/12/01 12:50:53;;;;;;;;;;;;;;;9.67;61.37;99063.53;5035294;28;19924;-71
2022/12/01 12:53:24;;;;;;;;;;;;;;;9.67;61.57;99058.31;5035534;28;19923;-71
2022/12/01 12:55:50;;;;;;;;;;;;;;;9.68;61.45;99068.66;5019324;28;19917;-72
2022/12/01 12:58:15;;;;;;;;;;;;;;;9.68;61.40;99065.22;5018595;28;20402;-71
2022/12/01 13:00:43;;;;;;;;;;;;;;;9.68;61.58;99067.81;5053125;28;19928;-69